sensor_id;sensor_type;location;lat;lon;timestamp;temperature;humidity
77467;DHT22;66564;42.482;25.548;2023-07-31T00:00:40;24.94;43.08
77467;DHT22;66564;42.482;25.548;2023-07-31T00:03:05;24.99;43.01
77467;DHT22;66564;42.482;25.548;2023-07-31T00:05:31;24.96;43.25
77467;DHT22;66564;42.482;25.548;2023-07-31T00:07:56;24.95;43.50
77467;DHT22;66564;42.482;25.548;2023-07-31T00:10:22;24.92;42.66
77467;DHT22;66564;42.482;25.548;2023-07-31T00:12:47;24.86;43.30
77467;DHT22;66564;42.482;25.548;2023-07-31T00:15:13;24.89;43.71
77467;DHT22;66564;42.482;25.548;2023-07-31T00:17:39;24.86;43.74
77467;DHT22;66564;42.482;25.548;2023-07-31T00:20:04;24.91;43.88
77467;DHT22;66564;42.482;25.548;2023-07-31T00:22:30;24.89;43.60
77467;DHT22;66564;42.482;25.548;2023-07-31T00:24:56;24.89;43.66
77467;DHT22;66564;42.482;25.548;2023-07-31T00:27:22;24.88;44.13
77467;DHT22;66564;42.482;25.548;2023-07-31T00:29:48;24.88;43.51
77467;DHT22;66564;42.482;25.548;2023-07-31T00:32:19;24.92;42.64
77467;DHT22;66564;42.482;25.548;2023-07-31T00:34:44;24.91;43.37
77467;DHT22;66564;42.482;25.548;2023-07-31T00:37:13;24.89;43.35
77467;DHT22;66564;42.482;25.548;2023-07-31T00:39:38;24.92;42.43
77467;DHT22;66564;42.482;25.548;2023-07-31T00:42:04;24.96;42.42
77467;DHT22;66564;42.482;25.548;2023-07-31T00:44:29;24.92;41.94
77467;DHT22;66564;42.482;25.548;2023-07-31T00:46:55;24.94;42.92
77467;DHT22;66564;42.482;25.548;2023-07-31T00:49:22;24.95;43.06
77467;DHT22;66564;42.482;25.548;2023-07-31T00:51:47;24.96;43.63
77467;DHT22;66564;42.482;25.548;2023-07-31T00:54:13;24.96;43.17
77467;DHT22;66564;42.482;25.548;2023-07-31T00:56:40;24.95;43.44
77467;DHT22;66564;42.482;25.548;2023-07-31T00:59:06;24.99;43.86
77467;DHT22;66564;42.482;25.548;2023-07-31T01:01:31;25.02;43.82
77467;DHT22;66564;42.482;25.548;2023-07-31T01:03:56;25.02;44.20
77467;DHT22;66564;42.482;25.548;2023-07-31T01:11:41;24.96;45.76
77467;DHT22;66564;42.482;25.548;2023-07-31T01:14:08;24.99;45.88
77467;DHT22;66564;42.482;25.548;2023-07-31T01:16:33;24.99;46.72
77467;DHT22;66564;42.482;25.548;2023-07-31T01:18:59;24.99;46.73
77467;DHT22;66564;42.482;25.548;2023-07-31T01:26:45;25.04;47.44
77467;DHT22;66564;42.482;25.548;2023-07-31T01:29:23;25.04;47.39
77467;DHT22;66564;42.482;25.548;2023-07-31T01:31:53;25.05;47.04
77467;DHT22;66564;42.482;25.548;2023-07-31T01:34:21;25.01;47.36
77467;DHT22;66564;42.482;25.548;2023-07-31T01:36:46;25.05;47.87
77467;DHT22;66564;42.482;25.548;2023-07-31T01:39:12;25.05;48.09
77467;DHT22;66564;42.482;25.548;2023-07-31T01:41:37;25.05;48.20
77467;DHT22;66564;42.482;25.548;2023-07-31T01:44:03;25.05;48.63
77467;DHT22;66564;42.482;25.548;2023-07-31T01:46:28;25.02;49.09
77467;DHT22;66564;42.482;25.548;2023-07-31T01:48:54;25.04;49.07
77467;DHT22;66564;42.482;25.548;2023-07-31T01:51:19;25.08;49.67
77467;DHT22;66564;42.482;25.548;2023-07-31T01:53:44;25.15;49.55
77467;DHT22;66564;42.482;25.548;2023-07-31T01:56:10;25.11;49.81
77467;DHT22;66564;42.482;25.548;2023-07-31T01:58:35;25.05;50.12
77467;DHT22;66564;42.482;25.548;2023-07-31T02:01:01;25.11;49.95
77467;DHT22;66564;42.482;25.548;2023-07-31T02:03:26;25.11;50.64
77467;DHT22;66564;42.482;25.548;2023-07-31T02:05:54;25.11;50.04
77467;DHT22;66564;42.482;25.548;2023-07-31T02:08:19;25.08;50.35
77467;DHT22;66564;42.482;25.548;2023-07-31T02:10:45;25.01;50.76
77467;DHT22;66564;42.482;25.548;2023-07-31T02:13:10;25.02;50.01
77467;DHT22;66564;42.482;25.548;2023-07-31T02:15:37;25.02;50.27
77467;DHT22;66564;42.482;25.548;2023-07-31T02:18:02;25.06;50.59
77467;DHT22;66564;42.482;25.548;2023-07-31T02:20:28;25.06;50.71
77467;DHT22;66564;42.482;25.548;2023-07-31T02:22:53;25.06;50.99
77467;DHT22;66564;42.482;25.548;2023-07-31T02:25:19;25.01;51.17
77467;DHT22;66564;42.482;25.548;2023-07-31T02:27:46;25.02;51.88
77467;DHT22;66564;42.482;25.548;2023-07-31T02:30:12;25.05;51.87
77467;DHT22;66564;42.482;25.548;2023-07-31T02:32:37;25.02;51.98
77467;DHT22;66564;42.482;25.548;2023-07-31T02:35:03;25.04;51.82
77467;DHT22;66564;42.482;25.548;2023-07-31T02:37:28;25.01;50.65
77467;DHT22;66564;42.482;25.548;2023-07-31T02:39:54;24.99;51.18
77467;DHT22;66564;42.482;25.548;2023-07-31T02:42:20;24.95;50.85
77467;DHT22;66564;42.482;25.548;2023-07-31T02:44:45;24.99;51.44
77467;DHT22;66564;42.482;25.548;2023-07-31T02:47:11;24.94;51.61
77467;DHT22;66564;42.482;25.548;2023-07-31T02:49:36;24.86;50.84
77467;DHT22;66564;42.482;25.548;2023-07-31T02:52:02;24.85;48.57
77467;DHT22;66564;42.482;25.548;2023-07-31T02:54:28;24.85;48.91
77467;DHT22;66564;42.482;25.548;2023-07-31T02:56:53;24.86;51.34
77467;DHT22;66564;42.482;25.548;2023-07-31T02:59:20;24.88;50.77
77467;DHT22;66564;42.482;25.548;2023-07-31T03:01:45;24.81;51.87
77467;DHT22;66564;42.482;25.548;2023-07-31T03:04:13;24.84;50.97
77467;DHT22;66564;42.482;25.548;2023-07-31T03:06:39;24.78;50.76
77467;DHT22;66564;42.482;25.548;2023-07-31T03:09:04;24.69;50.80
77467;DHT22;66564;42.482;25.548;2023-07-31T03:11:30;24.68;50.08
77467;DHT22;66564;42.482;25.548;2023-07-31T03:13:55;24.65;50.97
77467;DHT22;66564;42.482;25.548;2023-07-31T03:16:22;24.64;51.13
77467;DHT22;66564;42.482;25.548;2023-07-31T03:18:47;24.55;49.98
77467;DHT22;66564;42.482;25.548;2023-07-31T03:21:13;24.48;50.15
77467;DHT22;66564;42.482;25.548;2023-07-31T03:23:38;24.44;49.12
77467;DHT22;66564;42.482;25.548;2023-07-31T03:26:07;24.41;48.80
77467;DHT22;66564;42.482;25.548;2023-07-31T03:28:33;24.41;48.60
77467;DHT22;66564;42.482;25.548;2023-07-31T03:30:58;24.42;46.80
77467;DHT22;66564;42.482;25.548;2023-07-31T03:33:24;24.47;47.04
77467;DHT22;66564;42.482;25.548;2023-07-31T03:35:50;24.52;48.42
77467;DHT22;66564;42.482;25.548;2023-07-31T03:38:15;24.47;48.78
77467;DHT22;66564;42.482;25.548;2023-07-31T03:40:41;24.47;48.55
77467;DHT22;66564;42.482;25.548;2023-07-31T03:43:06;24.48;49.94
77467;DHT22;66564;42.482;25.548;2023-07-31T03:45:32;24.45;50.09
77467;DHT22;66564;42.482;25.548;2023-07-31T03:47:57;24.44;50.00
77467;DHT22;66564;42.482;25.548;2023-07-31T03:50:23;24.37;48.10
77467;DHT22;66564;42.482;25.548;2023-07-31T03:52:50;24.41;48.32
77467;DHT22;66564;42.482;25.548;2023-07-31T03:55:15;24.45;50.21
77467;DHT22;66564;42.482;25.548;2023-07-31T03:57:41;24.45;50.21
77467;DHT22;66564;42.482;25.548;2023-07-31T04:00:07;24.54;51.58
77467;DHT22;66564;42.482;25.548;2023-07-31T04:02:32;24.54;52.05
77467;DHT22;66564;42.482;25.548;2023-07-31T04:04:58;24.58;52.13
77467;DHT22;66564;42.482;25.548;2023-07-31T04:07:23;24.67;51.80
77467;DHT22;66564;42.482;25.548;2023-07-31T04:09:49;24.72;51.47
77467;DHT22;66564;42.482;25.548;2023-07-31T04:12:14;24.74;50.75
77467;DHT22;66564;42.482;25.548;2023-07-31T04:14:40;24.75;51.43
77467;DHT22;66564;42.482;25.548;2023-07-31T04:17:05;24.76;51.77
77467;DHT22;66564;42.482;25.548;2023-07-31T04:19:31;24.79;51.69
77467;DHT22;66564;42.482;25.548;2023-07-31T04:21:56;24.74;51.79
77467;DHT22;66564;42.482;25.548;2023-07-31T04:24:22;24.81;51.43
77467;DHT22;66564;42.482;25.548;2023-07-31T04:26:53;24.82;50.62
77467;DHT22;66564;42.482;25.548;2023-07-31T04:29:18;24.68;50.58
77467;DHT22;66564;42.482;25.548;2023-07-31T04:31:44;24.74;50.46
77467;DHT22;66564;42.482;25.548;2023-07-31T04:34:09;24.75;48.38
77467;DHT22;66564;42.482;25.548;2023-07-31T04:36:36;24.71;49.57
77467;DHT22;66564;42.482;25.548;2023-07-31T04:39:01;24.81;49.68
77467;DHT22;66564;42.482;25.548;2023-07-31T04:41:27;24.92;49.00
77467;DHT22;66564;42.482;25.548;2023-07-31T04:43:53;24.98;48.32
77467;DHT22;66564;42.482;25.548;2023-07-31T04:46:18;25.02;49.48
77467;DHT22;66564;42.482;25.548;2023-07-31T04:48:44;25.14;50.10
77467;DHT22;66564;42.482;25.548;2023-07-31T04:51:09;25.15;51.12
77467;DHT22;66564;42.482;25.548;2023-07-31T04:53:35;25.23;50.92
77467;DHT22;66564;42.482;25.548;2023-07-31T04:56:01;25.26;51.38
77467;DHT22;66564;42.482;25.548;2023-07-31T04:58:26;25.26;51.90
77467;DHT22;66564;42.482;25.548;2023-07-31T05:00:52;25.29;51.20
77467;DHT22;66564;42.482;25.548;2023-07-31T05:03:17;25.27;51.56
77467;DHT22;66564;42.482;25.548;2023-07-31T05:05:42;25.23;52.36
77467;DHT22;66564;42.482;25.548;2023-07-31T05:08:08;25.25;51.28
77467;DHT22;66564;42.482;25.548;2023-07-31T05:10:34;25.20;51.40
77467;DHT22;66564;42.482;25.548;2023-07-31T05:12:59;25.20;52.88
77467;DHT22;66564;42.482;25.548;2023-07-31T05:15:25;25.18;52.97
77467;DHT22;66564;42.482;25.548;2023-07-31T05:17:50;25.18;54.00
77467;DHT22;66564;42.482;25.548;2023-07-31T05:20:16;25.18;53.95
77467;DHT22;66564;42.482;25.548;2023-07-31T05:22:41;25.14;53.79
77467;DHT22;66564;42.482;25.548;2023-07-31T05:25:07;25.11;54.14
77467;DHT22;66564;42.482;25.548;2023-07-31T05:27:33;25.11;54.11
77467;DHT22;66564;42.482;25.548;2023-07-31T05:29:58;25.09;53.33
77467;DHT22;66564;42.482;25.548;2023-07-31T05:32:24;25.06;55.32
77467;DHT22;66564;42.482;25.548;2023-07-31T05:34:52;25.06;55.41
77467;DHT22;66564;42.482;25.548;2023-07-31T05:37:18;25.06;55.77
77467;DHT22;66564;42.482;25.548;2023-07-31T05:39:44;25.04;56.67
77467;DHT22;66564;42.482;25.548;2023-07-31T05:42:10;24.96;56.29
77467;DHT22;66564;42.482;25.548;2023-07-31T05:44:35;24.96;57.81
77467;DHT22;66564;42.482;25.548;2023-07-31T05:47:01;24.95;57.55
77467;DHT22;66564;42.482;25.548;2023-07-31T05:49:26;24.88;57.47
77467;DHT22;66564;42.482;25.548;2023-07-31T05:51:52;24.88;57.58
77467;DHT22;66564;42.482;25.548;2023-07-31T05:54:17;24.82;57.23
77467;DHT22;66564;42.482;25.548;2023-07-31T05:56:43;24.76;58.04
77467;DHT22;66564;42.482;25.548;2023-07-31T05:59:09;24.72;58.64
77467;DHT22;66564;42.482;25.548;2023-07-31T06:01:35;24.71;58.89
77467;DHT22;66564;42.482;25.548;2023-07-31T06:04:03;24.69;57.61
77467;DHT22;66564;42.482;25.548;2023-07-31T06:06:29;24.67;58.97
77467;DHT22;66564;42.482;25.548;2023-07-31T06:08:54;24.61;58.16
77467;DHT22;66564;42.482;25.548;2023-07-31T06:11:20;24.60;60.55
77467;DHT22;66564;42.482;25.548;2023-07-31T06:13:46;24.60;59.91
77467;DHT22;66564;42.482;25.548;2023-07-31T06:16:13;24.58;58.85
77467;DHT22;66564;42.482;25.548;2023-07-31T06:18:39;24.47;60.78
77467;DHT22;66564;42.482;25.548;2023-07-31T06:21:04;24.47;61.02
77467;DHT22;66564;42.482;25.548;2023-07-31T06:23:29;24.41;60.73
77467;DHT22;66564;42.482;25.548;2023-07-31T06:25:55;24.41;60.79
77467;DHT22;66564;42.482;25.548;2023-07-31T06:28:20;24.40;61.08
77467;DHT22;66564;42.482;25.548;2023-07-31T06:30:46;24.40;61.73
77467;DHT22;66564;42.482;25.548;2023-07-31T06:33:14;24.32;62.06
77467;DHT22;66564;42.482;25.548;2023-07-31T06:35:39;24.35;62.32
77467;DHT22;66564;42.482;25.548;2023-07-31T06:38:05;24.34;62.72
77467;DHT22;66564;42.482;25.548;2023-07-31T06:40:31;24.34;62.85
77467;DHT22;66564;42.482;25.548;2023-07-31T06:42:56;24.40;62.51
77467;DHT22;66564;42.482;25.548;2023-07-31T06:45:21;24.40;62.71
77467;DHT22;66564;42.482;25.548;2023-07-31T06:47:47;24.30;62.94
77467;DHT22;66564;42.482;25.548;2023-07-31T06:50:12;24.38;62.77
77467;DHT22;66564;42.482;25.548;2023-07-31T06:52:38;24.42;60.76
77467;DHT22;66564;42.482;25.548;2023-07-31T06:55:16;24.60;60.52
77467;DHT22;66564;42.482;25.548;2023-07-31T06:57:43;24.79;59.15
77467;DHT22;66564;42.482;25.548;2023-07-31T07:00:09;25.01;59.29
77467;DHT22;66564;42.482;25.548;2023-07-31T07:02:35;25.18;56.94
77467;DHT22;66564;42.482;25.548;2023-07-31T07:05:00;25.37;59.39
77467;DHT22;66564;42.482;25.548;2023-07-31T07:07:26;25.51;59.27
77467;DHT22;66564;42.482;25.548;2023-07-31T07:09:51;25.73;58.97
77467;DHT22;66564;42.482;25.548;2023-07-31T07:12:17;25.93;60.03
77467;DHT22;66564;42.482;25.548;2023-07-31T07:14:42;26.13;59.73
77467;DHT22;66564;42.482;25.548;2023-07-31T07:17:07;26.14;59.59
77467;DHT22;66564;42.482;25.548;2023-07-31T07:19:33;26.21;58.85
77467;DHT22;66564;42.482;25.548;2023-07-31T07:21:58;26.18;59.38
77467;DHT22;66564;42.482;25.548;2023-07-31T07:24:27;26.28;58.72
77467;DHT22;66564;42.482;25.548;2023-07-31T07:26:52;26.23;59.40
77467;DHT22;66564;42.482;25.548;2023-07-31T07:29:17;26.20;59.29
77467;DHT22;66564;42.482;25.548;2023-07-31T07:31:43;26.21;60.02
77467;DHT22;66564;42.482;25.548;2023-07-31T07:34:08;26.28;60.29
77467;DHT22;66564;42.482;25.548;2023-07-31T07:36:34;26.28;60.74
77467;DHT22;66564;42.482;25.548;2023-07-31T07:38:59;26.25;60.84
77467;DHT22;66564;42.482;25.548;2023-07-31T07:41:25;26.24;61.15
77467;DHT22;66564;42.482;25.548;2023-07-31T07:43:50;26.10;61.15
77467;DHT22;66564;42.482;25.548;2023-07-31T07:46:17;25.96;62.38
77467;DHT22;66564;42.482;25.548;2023-07-31T07:48:42;25.94;62.98
77467;DHT22;66564;42.482;25.548;2023-07-31T07:51:10;25.97;61.83
77467;DHT22;66564;42.482;25.548;2023-07-31T07:53:36;26.18;63.36
77467;DHT22;66564;42.482;25.548;2023-07-31T07:56:01;26.28;62.61
77467;DHT22;66564;42.482;25.548;2023-07-31T07:58:27;26.35;62.00
77467;DHT22;66564;42.482;25.548;2023-07-31T08:00:53;26.13;61.79
77467;DHT22;66564;42.482;25.548;2023-07-31T08:03:18;26.24;61.43
77467;DHT22;66564;42.482;25.548;2023-07-31T08:05:44;26.21;62.26
77467;DHT22;66564;42.482;25.548;2023-07-31T08:08:14;26.25;61.41
77467;DHT22;66564;42.482;25.548;2023-07-31T08:10:41;26.40;60.07
77467;DHT22;66564;42.482;25.548;2023-07-31T08:13:07;26.49;58.76
77467;DHT22;66564;42.482;25.548;2023-07-31T08:15:32;26.59;60.82
77467;DHT22;66564;42.482;25.548;2023-07-31T08:17:58;26.75;59.85
77467;DHT22;66564;42.482;25.548;2023-07-31T08:20:23;26.91;60.94
77467;DHT22;66564;42.482;25.548;2023-07-31T08:22:48;26.96;60.57
77467;DHT22;66564;42.482;25.548;2023-07-31T08:25:14;26.92;59.34
77467;DHT22;66564;42.482;25.548;2023-07-31T08:27:43;26.99;57.32
77467;DHT22;66564;42.482;25.548;2023-07-31T08:30:09;27.05;57.24
77467;DHT22;66564;42.482;25.548;2023-07-31T08:32:34;27.09;58.63
77467;DHT22;66564;42.482;25.548;2023-07-31T08:35:00;27.13;58.17
77467;DHT22;66564;42.482;25.548;2023-07-31T08:37:25;27.15;57.70
77467;DHT22;66564;42.482;25.548;2023-07-31T08:39:51;27.15;57.19
77467;DHT22;66564;42.482;25.548;2023-07-31T08:42:16;27.12;57.09
77467;DHT22;66564;42.482;25.548;2023-07-31T08:44:43;27.12;55.90
77467;DHT22;66564;42.482;25.548;2023-07-31T08:47:09;27.09;57.15
77467;DHT22;66564;42.482;25.548;2023-07-31T08:49:36;27.06;58.14
77467;DHT22;66564;42.482;25.548;2023-07-31T08:52:02;27.12;59.21
77467;DHT22;66564;42.482;25.548;2023-07-31T08:54:29;27.18;59.52
77467;DHT22;66564;42.482;25.548;2023-07-31T08:56:57;27.22;58.64
77467;DHT22;66564;42.482;25.548;2023-07-31T08:59:23;27.30;58.64
77467;DHT22;66564;42.482;25.548;2023-07-31T09:01:50;27.42;58.09
77467;DHT22;66564;42.482;25.548;2023-07-31T09:04:18;27.45;56.77
77467;DHT22;66564;42.482;25.548;2023-07-31T09:06:45;27.42;56.84
77467;DHT22;66564;42.482;25.548;2023-07-31T09:09:12;27.56;55.67
77467;DHT22;66564;42.482;25.548;2023-07-31T09:11:37;27.70;55.39
77467;DHT22;66564;42.482;25.548;2023-07-31T09:14:03;27.81;54.46
77467;DHT22;66564;42.482;25.548;2023-07-31T09:16:34;28.00;53.95
77467;DHT22;66564;42.482;25.548;2023-07-31T09:19:00;28.10;55.07
77467;DHT22;66564;42.482;25.548;2023-07-31T09:21:27;28.13;55.48
77467;DHT22;66564;42.482;25.548;2023-07-31T09:23:54;27.66;54.06
77467;DHT22;66564;42.482;25.548;2023-07-31T09:26:36;27.73;53.94
77467;DHT22;66564;42.482;25.548;2023-07-31T09:29:04;28.03;55.24
77467;DHT22;66564;42.482;25.548;2023-07-31T09:31:39;28.27;53.52
77467;DHT22;66564;42.482;25.548;2023-07-31T09:34:05;28.52;53.23
77467;DHT22;66564;42.482;25.548;2023-07-31T09:36:30;28.68;51.87
77467;DHT22;66564;42.482;25.548;2023-07-31T09:39:01;28.64;51.22
77467;DHT22;66564;42.482;25.548;2023-07-31T09:41:28;28.87;50.84
77467;DHT22;66564;42.482;25.548;2023-07-31T09:43:54;29.12;50.28
77467;DHT22;66564;42.482;25.548;2023-07-31T09:46:20;29.36;50.59
77467;DHT22;66564;42.482;25.548;2023-07-31T09:48:46;29.56;47.87
77467;DHT22;66564;42.482;25.548;2023-07-31T09:51:12;29.88;49.02
77467;DHT22;66564;42.482;25.548;2023-07-31T09:53:37;30.21;46.70
77467;DHT22;66564;42.482;25.548;2023-07-31T09:56:03;30.32;46.01
77467;DHT22;66564;42.482;25.548;2023-07-31T09:58:29;30.59;44.75
77467;DHT22;66564;42.482;25.548;2023-07-31T10:00:57;30.74;45.28
77467;DHT22;66564;42.482;25.548;2023-07-31T10:03:27;30.95;44.61
77467;DHT22;66564;42.482;25.548;2023-07-31T10:05:55;31.08;43.22
77467;DHT22;66564;42.482;25.548;2023-07-31T10:08:23;31.09;42.35
77467;DHT22;66564;42.482;25.548;2023-07-31T10:10:52;31.21;42.95
77467;DHT22;66564;42.482;25.548;2023-07-31T10:13:18;31.33;43.33
77467;DHT22;66564;42.482;25.548;2023-07-31T10:15:45;31.49;42.89
77467;DHT22;66564;42.482;25.548;2023-07-31T10:18:11;31.57;41.35
77467;DHT22;66564;42.482;25.548;2023-07-31T10:20:38;31.56;41.30
77467;DHT22;66564;42.482;25.548;2023-07-31T10:23:03;31.57;41.39
77467;DHT22;66564;42.482;25.548;2023-07-31T10:25:29;31.53;40.88
77467;DHT22;66564;42.482;25.548;2023-07-31T10:27:57;31.46;41.20
77467;DHT22;66564;42.482;25.548;2023-07-31T10:30:31;31.42;41.90
77467;DHT22;66564;42.482;25.548;2023-07-31T10:32:58;31.50;41.14
77467;DHT22;66564;42.482;25.548;2023-07-31T10:35:23;31.47;41.21
77467;DHT22;66564;42.482;25.548;2023-07-31T10:37:49;31.32;41.03
77467;DHT22;66564;42.482;25.548;2023-07-31T10:40:19;31.25;40.73
77467;DHT22;66564;42.482;25.548;2023-07-31T10:42:49;31.21;40.83
77467;DHT22;66564;42.482;25.548;2023-07-31T10:45:31;31.25;42.14
77467;DHT22;66564;42.482;25.548;2023-07-31T10:48:00;31.42;40.73
77467;DHT22;66564;42.482;25.548;2023-07-31T10:50:27;31.53;40.92
77467;DHT22;66564;42.482;25.548;2023-07-31T10:52:54;31.73;40.49
77467;DHT22;66564;42.482;25.548;2023-07-31T10:57:57;31.63;38.92
77467;DHT22;66564;42.482;25.548;2023-07-31T11:00:26;31.72;40.60
77467;DHT22;66564;42.482;25.548;2023-07-31T11:03:00;31.91;40.18
77467;DHT22;66564;42.482;25.548;2023-07-31T11:11:07;32.40;39.11
77467;DHT22;66564;42.482;25.548;2023-07-31T11:13:45;32.61;38.51
77467;DHT22;66564;42.482;25.548;2023-07-31T11:16:13;32.74;38.51
77467;DHT22;66564;42.482;25.548;2023-07-31T11:18:42;32.91;39.62
77467;DHT22;66564;42.482;25.548;2023-07-31T11:21:08;33.11;37.42
77467;DHT22;66564;42.482;25.548;2023-07-31T11:23:36;33.15;37.36
77467;DHT22;66564;42.482;25.548;2023-07-31T11:26:01;33.27;37.28
77467;DHT22;66564;42.482;25.548;2023-07-31T11:28:31;33.46;37.93
77467;DHT22;66564;42.482;25.548;2023-07-31T11:30:57;33.72;37.46
77467;DHT22;66564;42.482;25.548;2023-07-31T11:33:23;33.93;36.67
77467;DHT22;66564;42.482;25.548;2023-07-31T11:35:51;34.13;39.47
77467;DHT22;66564;42.482;25.548;2023-07-31T11:38:26;34.43;36.51
77467;DHT22;66564;42.482;25.548;2023-07-31T11:40:53;34.54;34.47
77467;DHT22;66564;42.482;25.548;2023-07-31T11:43:20;34.51;34.43
77467;DHT22;66564;42.482;25.548;2023-07-31T11:45:50;34.40;34.21
77467;DHT22;66564;42.482;25.548;2023-07-31T11:50:50;34.06;34.96
77467;DHT22;66564;42.482;25.548;2023-07-31T11:53:19;33.96;35.22
77467;DHT22;66564;42.482;25.548;2023-07-31T11:55:45;33.86;35.66
77467;DHT22;66564;42.482;25.548;2023-07-31T11:58:11;33.74;36.09
77467;DHT22;66564;42.482;25.548;2023-07-31T12:00:38;33.57;36.14
77467;DHT22;66564;42.482;25.548;2023-07-31T12:03:04;33.47;36.20
77467;DHT22;66564;42.482;25.548;2023-07-31T12:05:29;33.30;35.57
77467;DHT22;66564;42.482;25.548;2023-07-31T12:07:55;33.11;36.06
77467;DHT22;66564;42.482;25.548;2023-07-31T12:10:31;32.94;37.01
77467;DHT22;66564;42.482;25.548;2023-07-31T12:13:05;32.23;38.31
77467;DHT22;66564;42.482;25.548;2023-07-31T12:15:54;32.35;38.29
77467;DHT22;66564;42.482;25.548;2023-07-31T12:18:20;32.41;37.55
77467;DHT22;66564;42.482;25.548;2023-07-31T12:20:59;32.45;37.86
77467;DHT22;66564;42.482;25.548;2023-07-31T12:23:26;32.47;37.75
77467;DHT22;66564;42.482;25.548;2023-07-31T12:26:15;32.37;38.04
77467;DHT22;66564;42.482;25.548;2023-07-31T12:28:45;32.44;37.61
77467;DHT22;66564;42.482;25.548;2023-07-31T12:31:13;32.55;36.43
77467;DHT22;66564;42.482;25.548;2023-07-31T12:33:40;32.67;38.52
77467;DHT22;66564;42.482;25.548;2023-07-31T12:36:14;32.81;36.67
77467;DHT22;66564;42.482;25.548;2023-07-31T12:38:40;32.95;36.31
77467;DHT22;66564;42.482;25.548;2023-07-31T12:41:06;33.09;36.72
77467;DHT22;66564;42.482;25.548;2023-07-31T12:43:36;33.26;35.31
77467;DHT22;66564;42.482;25.548;2023-07-31T12:46:02;33.32;34.60
77467;DHT22;66564;42.482;25.548;2023-07-31T12:48:28;33.30;35.16
77467;DHT22;66564;42.482;25.548;2023-07-31T12:50:53;33.33;35.14
77467;DHT22;66564;42.482;25.548;2023-07-31T12:53:19;33.32;34.89
77467;DHT22;66564;42.482;25.548;2023-07-31T12:55:44;33.32;35.12
77467;DHT22;66564;42.482;25.548;2023-07-31T12:58:10;33.22;34.97
77467;DHT22;66564;42.482;25.548;2023-07-31T13:00:35;33.15;35.26
77467;DHT22;66564;42.482;25.548;2023-07-31T13:03:01;32.91;34.92
77467;DHT22;66564;42.482;25.548;2023-07-31T13:05:27;32.78;35.51
77467;DHT22;66564;42.482;25.548;2023-07-31T13:07:53;32.70;36.66
77467;DHT22;66564;42.482;25.548;2023-07-31T13:10:19;32.64;35.96
77467;DHT22;66564;42.482;25.548;2023-07-31T13:12:44;32.52;35.98
77467;DHT22;66564;42.482;25.548;2023-07-31T13:15:10;32.41;36.15
77467;DHT22;66564;42.482;25.548;2023-07-31T13:17:36;32.31;37.03
77467;DHT22;66564;42.482;25.548;2023-07-31T13:20:02;32.27;37.60
77467;DHT22;66564;42.482;25.548;2023-07-31T13:22:28;32.16;37.60
77467;DHT22;66564;42.482;25.548;2023-07-31T13:24:54;32.07;37.19
77467;DHT22;66564;42.482;25.548;2023-07-31T13:27:19;31.93;37.52
77467;DHT22;66564;42.482;25.548;2023-07-31T13:29:50;31.76;39.63
77467;DHT22;66564;42.482;25.548;2023-07-31T13:32:17;31.42;42.11
77467;DHT22;66564;42.482;25.548;2023-07-31T13:34:43;31.27;42.21
77467;DHT22;66564;42.482;25.548;2023-07-31T13:37:08;31.21;43.02
77467;DHT22;66564;42.482;25.548;2023-07-31T13:39:34;31.15;42.36
77467;DHT22;66564;42.482;25.548;2023-07-31T13:42:00;30.79;42.59
77467;DHT22;66564;42.482;25.548;2023-07-31T13:44:26;30.59;43.51
77467;DHT22;66564;42.482;25.548;2023-07-31T13:46:51;30.55;43.85
77467;DHT22;66564;42.482;25.548;2023-07-31T13:49:16;30.64;43.55
77467;DHT22;66564;42.482;25.548;2023-07-31T13:51:42;30.65;42.31
77467;DHT22;66564;42.482;25.548;2023-07-31T13:54:07;30.75;42.00
77467;DHT22;66564;42.482;25.548;2023-07-31T13:56:33;30.89;42.88
77467;DHT22;66564;42.482;25.548;2023-07-31T13:58:58;30.93;42.47
77467;DHT22;66564;42.482;25.548;2023-07-31T14:01:26;31.04;41.72
77467;DHT22;66564;42.482;25.548;2023-07-31T14:03:51;31.08;41.04
77467;DHT22;66564;42.482;25.548;2023-07-31T14:06:19;31.09;40.07
77467;DHT22;66564;42.482;25.548;2023-07-31T14:08:44;31.13;40.33
77467;DHT22;66564;42.482;25.548;2023-07-31T14:11:09;31.21;40.54
77467;DHT22;66564;42.482;25.548;2023-07-31T14:13:35;31.22;40.45
77467;DHT22;66564;42.482;25.548;2023-07-31T14:16:00;31.25;40.66
77467;DHT22;66564;42.482;25.548;2023-07-31T14:18:26;31.29;41.49
77467;DHT22;66564;42.482;25.548;2023-07-31T14:20:51;31.32;42.04
77467;DHT22;66564;42.482;25.548;2023-07-31T14:23:17;31.33;41.91
77467;DHT22;66564;42.482;25.548;2023-07-31T14:25:46;31.37;39.48
77467;DHT22;66564;42.482;25.548;2023-07-31T14:28:11;31.39;38.82
77467;DHT22;66564;42.482;25.548;2023-07-31T14:30:37;31.32;38.56
77467;DHT22;66564;42.482;25.548;2023-07-31T14:33:02;31.22;42.41
77467;DHT22;66564;42.482;25.548;2023-07-31T14:35:28;30.98;43.15
77467;DHT22;66564;42.482;25.548;2023-07-31T14:37:53;30.86;43.72
77467;DHT22;66564;42.482;25.548;2023-07-31T14:40:19;30.45;45.31
77467;DHT22;66564;42.482;25.548;2023-07-31T14:42:44;30.25;45.47
77467;DHT22;66564;42.482;25.548;2023-07-31T14:45:10;30.32;45.84
77467;DHT22;66564;42.482;25.548;2023-07-31T14:47:36;30.35;45.78
77467;DHT22;66564;42.482;25.548;2023-07-31T14:50:02;30.31;45.61
77467;DHT22;66564;42.482;25.548;2023-07-31T14:52:28;30.31;44.91
77467;DHT22;66564;42.482;25.548;2023-07-31T14:54:54;30.32;44.87
77467;DHT22;66564;42.482;25.548;2023-07-31T14:57:19;30.14;45.05
77467;DHT22;66564;42.482;25.548;2023-07-31T14:59:45;30.08;44.96
77467;DHT22;66564;42.482;25.548;2023-07-31T15:02:11;30.00;45.24
77467;DHT22;66564;42.482;25.548;2023-07-31T15:04:37;29.97;44.88
77467;DHT22;66564;42.482;25.548;2023-07-31T15:07:03;29.76;44.98
77467;DHT22;66564;42.482;25.548;2023-07-31T15:09:28;29.73;44.81
77467;DHT22;66564;42.482;25.548;2023-07-31T15:11:56;29.70;45.17
77467;DHT22;66564;42.482;25.548;2023-07-31T15:14:22;29.60;45.26
77467;DHT22;66564;42.482;25.548;2023-07-31T15:16:48;29.52;44.87
77467;DHT22;66564;42.482;25.548;2023-07-31T15:19:14;29.39;45.16
77467;DHT22;66564;42.482;25.548;2023-07-31T15:21:40;29.33;45.60
77467;DHT22;66564;42.482;25.548;2023-07-31T15:24:05;29.32;45.09
77467;DHT22;66564;42.482;25.548;2023-07-31T15:26:31;29.29;45.47
77467;DHT22;66564;42.482;25.548;2023-07-31T15:29:03;29.25;45.04
77467;DHT22;66564;42.482;25.548;2023-07-31T15:31:31;29.22;45.97